Time;durP1;ratioP1;P1;durP2;ratioP2;P2;SDS_P1;SDS_P2;PMS_P1;PMS_P2;Temp;Humidity;BMP_temperature;BMP_pressure;BME280_temperature;BME280_humidity;BME280_pressure;Samples;Min_cycle;Max_cycle;Signal;HPM_P1;HPM_P2
2023/07/09 00:00:17;;;;;;;12.32;7.28;;;;;;;;;;5031707;28;20071;-71
2023/07/09 00:02:43;;;;;;;15.45;7.10;;;;;;;;;;5029757;28;20588;-71
2023/07/09 00:05:10;;;;;;;13.20;7.80;;;;;;;;;;5029862;28;20112;-71
2023/07/09 00:07:36;;;;;;;10.85;7.32;;;;;;;;;;5030869;28;20021;-71
2023/07/09 00:10:01;;;;;;;12.23;7.57;;;;;;;;;;5023099;28;20033;-71
2023/07/09 00:12:26;;;;;;;13.35;7.68;;;;;;;;;;5028204;28;20044;-71
2023/07/09 00:14:52;;;;;;;12.75;7.57;;;;;;;;;;5029680;28;20038;-71
2023/07/09 00:17:26;;;;;;;12.40;7.07;;;;;;;;;;5029035;28;20032;-71
2023/07/09 00:19:51;;;;;;;12.32;7.90;;;;;;;;;;5034625;28;20026;-71
2023/07/09 00:22:17;;;;;;;14.15;8.20;;;;;;;;;;5033981;28;20390;-71
2023/07/09 00:24:47;;;;;;;15.05;7.78;;;;;;;;;;5030227;28;20028;-71
2023/07/09 00:27:14;;;;;;;13.80;7.90;;;;;;;;;;5028569;28;20159;-71
2023/07/09 00:29:40;;;;;;;15.07;7.85;;;;;;;;;;5028378;28;20021;-71
2023/07/09 00:32:10;;;;;;;16.35;8.18;;;;;;;;;;5029657;28;20040;-71
2023/07/09 00:34:35;;;;;;;12.82;7.38;;;;;;;;;;5027152;28;20037;-71
2023/07/09 00:37:00;;;;;;;12.73;7.40;;;;;;;;;;5025208;28;20440;-71
2023/07/09 00:39:26;;;;;;;12.50;7.28;;;;;;;;;;5026448;28;20096;-71
2023/07/09 00:41:52;;;;;;;15.93;8.10;;;;;;;;;;5029959;28;20385;-71
2023/07/09 00:44:24;;;;;;;12.80;8.13;;;;;;;;;;5026878;28;20561;-71
2023/07/09 00:46:51;;;;;;;12.60;8.07;;;;;;;;;;5021650;28;20037;-71
2023/07/09 00:49:30;;;;;;;13.23;8.35;;;;;;;;;;5032604;28;20390;-71
2023/07/09 00:52:01;;;;;;;14.50;8.00;;;;;;;;;;5031662;28;20021;-71
2023/07/09 00:54:36;;;;;;;15.68;8.32;;;;;;;;;;5030353;28;20026;-71
2023/07/09 00:57:06;;;;;;;16.00;8.63;;;;;;;;;;5031333;28;20021;-71
2023/07/09 00:59:32;;;;;;;11.27;7.72;;;;;;;;;;5028166;28;20021;-71
2023/07/09 01:02:00;;;;;;;15.35;7.97;;;;;;;;;;5026865;28;20037;-67
2023/07/09 01:04:25;;;;;;;12.85;7.40;;;;;;;;;;5050675;22;20076;-67
2023/07/09 01:06:51;;;;;;;14.48;7.32;;;;;;;;;;5044412;28;20072;-67
2023/07/09 01:09:17;;;;;;;13.93;7.93;;;;;;;;;;5039633;28;20033;-67
2023/07/09 01:11:42;;;;;;;13.82;7.68;;;;;;;;;;5038959;28;20110;-67
2023/07/09 01:14:09;;;;;;;13.95;7.50;;;;;;;;;;5050627;28;20391;-67
2023/07/09 01:16:39;;;;;;;11.40;7.45;;;;;;;;;;5045875;28;20473;-67
2023/07/09 01:19:05;;;;;;;15.02;7.80;;;;;;;;;;5047531;28;20024;-67
2023/07/09 01:21:32;;;;;;;14.55;8.30;;;;;;;;;;5043713;28;20108;-67
2023/07/09 01:23:57;;;;;;;13.98;8.45;;;;;;;;;;5042111;28;20033;-67
2023/07/09 01:26:27;;;;;;;14.85;8.98;;;;;;;;;;5048301;28;20380;-66
2023/07/09 01:28:52;;;;;;;13.48;8.52;;;;;;;;;;5048042;28;20025;-67
2023/07/09 01:31:18;;;;;;;13.68;8.48;;;;;;;;;;5046708;28;20029;-66
2023/07/09 01:33:44;;;;;;;13.25;7.78;;;;;;;;;;5047889;28;20033;-66
2023/07/09 01:36:10;;;;;;;10.65;7.20;;;;;;;;;;5044145;28;20025;-66
2023/07/09 01:38:35;;;;;;;12.48;7.75;;;;;;;;;;5048025;28;20480;-67
2023/07/09 01:41:01;;;;;;;11.77;7.53;;;;;;;;;;5044412;28;20037;-67
2023/07/09 01:43:27;;;;;;;14.60;7.75;;;;;;;;;;5041881;28;20025;-67
2023/07/09 01:45:53;;;;;;;14.13;7.60;;;;;;;;;;5048850;28;20385;-66
2023/07/09 01:48:20;;;;;;;13.07;7.78;;;;;;;;;;5050449;28;20084;-66
2023/07/09 01:50:45;;;;;;;17.25;7.65;;;;;;;;;;5039658;28;21837;-66
2023/07/09 01:53:11;;;;;;;16.33;8.70;;;;;;;;;;5051127;28;20106;-66
2023/07/09 01:55:37;;;;;;;13.77;8.57;;;;;;;;;;5049868;28;20029;-66
2023/07/09 01:58:06;;;;;;;14.23;8.63;;;;;;;;;;5039076;28;20029;-66
2023/07/09 02:00:32;;;;;;;17.17;8.73;;;;;;;;;;5045269;28;20033;-64
2023/07/09 02:02:57;;;;;;;14.70;8.60;;;;;;;;;;5042412;28;20029;-64
2023/07/09 02:05:23;;;;;;;15.43;8.73;;;;;;;;;;5019892;28;20069;-64
2023/07/09 02:07:48;;;;;;;13.98;8.50;;;;;;;;;;5025417;28;20056;-64
2023/07/09 02:10:15;;;;;;;13.25;8.73;;;;;;;;;;5016946;28;20481;-62
2023/07/09 02:12:40;;;;;;;19.52;9.32;;;;;;;;;;5030827;28;20099;-62
2023/07/09 02:15:06;;;;;;;12.45;9.05;;;;;;;;;;5029386;28;20022;-62
2023/07/09 02:17:31;;;;;;;17.73;9.70;;;;;;;;;;5021871;28;20026;-62
2023/07/09 02:19:56;;;;;;;15.85;9.45;;;;;;;;;;5025122;28;20078;-62
2023/07/09 02:22:21;;;;;;;12.55;8.68;;;;;;;;;;5023879;28;20029;-62
2023/07/09 02:24:47;;;;;;;14.93;8.77;;;;;;;;;;5020354;28;20037;-62
2023/07/09 02:27:19;;;;;;;13.80;8.48;;;;;;;;;;5020528;28;20033;-62
2023/07/09 02:29:45;;;;;;;14.38;8.50;;;;;;;;;;5025905;28;20021;-62
2023/07/09 02:32:13;;;;;;;13.05;8.48;;;;;;;;;;5030082;28;20515;-62
2023/07/09 02:34:38;;;;;;;16.05;9.15;;;;;;;;;;5020785;28;20026;-62
2023/07/09 02:37:04;;;;;;;16.50;8.80;;;;;;;;;;5019979;28;20017;-62
2023/07/09 02:39:29;;;;;;;18.38;9.80;;;;;;;;;;5024199;28;20052;-62
2023/07/09 02:41:54;;;;;;;19.95;9.50;;;;;;;;;;5023642;28;20025;-62
2023/07/09 02:44:19;;;;;;;18.30;9.90;;;;;;;;;;5018250;28;20030;-61
2023/07/09 02:46:45;;;;;;;16.67;9.68;;;;;;;;;;5022361;28;20152;-61
2023/07/09 02:49:11;;;;;;;17.25;9.38;;;;;;;;;;5021893;28;20022;-61
2023/07/09 02:51:36;;;;;;;17.55;10.52;;;;;;;;;;5027512;28;20425;-61
2023/07/09 02:54:02;;;;;;;15.13;10.50;;;;;;;;;;5022755;28;20025;-61
2023/07/09 02:56:27;;;;;;;19.58;10.70;;;;;;;;;;5023532;28;20370;-61
2023/07/09 02:58:52;;;;;;;16.25;9.98;;;;;;;;;;5031512;28;20079;-61
2023/07/09 03:01:20;;;;;;;14.32;10.02;;;;;;;;;;5028537;28;20100;-61
2023/07/09 03:03:45;;;;;;;15.07;10.38;;;;;;;;;;5019185;28;20099;-62
2023/07/09 03:06:10;;;;;;;18.88;10.25;;;;;;;;;;5022162;28;20128;-61
2023/07/09 03:08:36;;;;;;;16.67;9.98;;;;;;;;;;5016340;28;20028;-62
2023/07/09 03:11:08;;;;;;;18.88;9.57;;;;;;;;;;5020315;28;20049;-61
2023/07/09 03:13:34;;;;;;;15.02;9.48;;;;;;;;;;5015880;28;20021;-62
2023/07/09 03:15:59;;;;;;;20.02;9.80;;;;;;;;;;5025879;28;20381;-62
2023/07/09 03:18:24;;;;;;;16.45;9.52;;;;;;;;;;5019646;28;20469;-61
2023/07/09 03:20:50;;;;;;;18.50;10.45;;;;;;;;;;5024183;28;20449;-61
2023/07/09 03:23:15;;;;;;;17.05;9.80;;;;;;;;;;5029599;28;20021;-61
2023/07/09 03:25:41;;;;;;;13.68;9.45;;;;;;;;;;5023602;28;20029;-61
2023/07/09 03:28:06;;;;;;;19.50;10.88;;;;;;;;;;5014902;28;20017;-62
2023/07/09 03:30:31;;;;;;;19.83;11.10;;;;;;;;;;5025195;28;20018;-61
2023/07/09 03:32:56;;;;;;;17.10;9.70;;;;;;;;;;5021077;28;20075;-61
2023/07/09 03:35:22;;;;;;;18.05;9.18;;;;;;;;;;5018902;28;20117;-62
2023/07/09 03:37:47;;;;;;;19.27;10.52;;;;;;;;;;5030672;28;20389;-61
2023/07/09 03:40:20;;;;;;;17.33;10.10;;;;;;;;;;5019150;28;20029;-62
2023/07/09 03:42:45;;;;;;;14.88;9.55;;;;;;;;;;5028044;28;20029;-62
2023/07/09 03:45:10;;;;;;;19.42;9.00;;;;;;;;;;5019367;28;20018;-62
2023/07/09 03:47:35;;;;;;;16.42;9.10;;;;;;;;;;5025006;28;20357;-62
2023/07/09 03:50:00;;;;;;;14.77;9.15;;;;;;;;;;5018045;28;20029;-62
2023/07/09 03:52:26;;;;;;;17.88;9.18;;;;;;;;;;5016873;28;20033;-62
2023/07/09 03:54:51;;;;;;;16.40;8.45;;;;;;;;;;5022421;28;20390;-61
2023/07/09 03:57:16;;;;;;;15.40;8.98;;;;;;;;;;5021129;28;20040;-62
2023/07/09 03:59:42;;;;;;;16.77;8.88;;;;;;;;;;5023145;28;20053;-62
2023/07/09 04:02:07;;;;;;;12.70;8.20;;;;;;;;;;5029455;28;20033;-62
2023/07/09 04:04:32;;;;;;;16.20;8.55;;;;;;;;;;5030218;28;20101;-62
2023/07/09 04:06:57;;;;;;;14.57;8.68;;;;;;;;;;5016414;28;20025;-64
2023/07/09 04:09:23;;;;;;;14.88;8.38;;;;;;;;;;5020229;28;20036;-62
2023/07/09 04:11:48;;;;;;;13.55;8.23;;;;;;;;;;5018379;28;20018;-62
2023/07/09 04:14:14;;;;;;;13.77;8.40;;;;;;;;;;5019432;28;20036;-62
2023/07/09 04:16:39;;;;;;;16.02;8.70;;;;;;;;;;5027466;28;20052;-62
2023/07/09 04:19:04;;;;;;;15.35;8.68;;;;;;;;;;5021578;28;20071;-62
2023/07/09 04:21:29;;;;;;;15.32;8.70;;;;;;;;;;5019092;28;20040;-62
2023/07/09 04:23:55;;;;;;;13.90;8.20;;;;;;;;;;5028498;28;20028;-61
2023/07/09 04:26:20;;;;;;;13.95;8.45;;;;;;;;;;5019119;28;20017;-61
2023/07/09 04:28:45;;;;;;;14.27;7.95;;;;;;;;;;5027770;28;20025;-61
2023/07/09 04:31:11;;;;;;;13.05;7.93;;;;;;;;;;5020712;28;20016;-61
2023/07/09 04:33:36;;;;;;;12.30;7.97;;;;;;;;;;5015920;28;20053;-62
2023/07/09 04:36:01;;;;;;;11.65;7.95;;;;;;;;;;5017111;28;20071;-62
2023/07/09 04:38:26;;;;;;;11.07;7.95;;;;;;;;;;5026496;28;20017;-62
2023/07/09 04:40:52;;;;;;;11.55;7.43;;;;;;;;;;5024114;28;20610;-62
2023/07/09 04:43:17;;;;;;;11.57;7.47;;;;;;;;;;5015784;28;20018;-62
2023/07/09 04:45:42;;;;;;;14.25;7.82;;;;;;;;;;5024807;28;20369;-62
2023/07/09 04:48:07;;;;;;;11.55;7.90;;;;;;;;;;5027623;28;20408;-62
2023/07/09 04:50:33;;;;;;;11.82;7.50;;;;;;;;;;5021874;28;20362;-61
2023/07/09 04:52:58;;;;;;;15.23;7.78;;;;;;;;;;5021225;28;20037;-61
2023/07/09 04:55:24;;;;;;;11.52;8.00;;;;;;;;;;5028390;28;20033;-61
2023/07/09 04:57:50;;;;;;;14.95;7.20;;;;;;;;;;5020745;28;20032;-61
2023/07/09 05:00:15;;;;;;;13.05;8.35;;;;;;;;;;5027333;28;20371;-62
2023/07/09 05:02:40;;;;;;;12.68;7.30;;;;;;;;;;5026571;28;20037;-62
2023/07/09 05:05:07;;;;;;;11.30;7.22;;;;;;;;;;5028774;28;20464;-62
2023/07/09 05:07:33;;;;;;;11.73;7.18;;;;;;;;;;5020217;28;20377;-62
2023/07/09 05:09:58;;;;;;;10.80;7.13;;;;;;;;;;5021978;28;20496;-62
2023/07/09 05:12:26;;;;;;;12.52;7.22;;;;;;;;;;5021409;28;20014;-63
2023/07/09 05:14:51;;;;;;;10.70;6.68;;;;;;;;;;5021248;28;20029;-62
2023/07/09 05:17:16;;;;;;;12.82;6.60;;;;;;;;;;5023681;28;20038;-62
2023/07/09 05:19:41;;;;;;;11.45;6.85;;;;;;;;;;5025654;28;20056;-62
2023/07/09 05:22:07;;;;;;;11.98;6.70;;;;;;;;;;5022012;28;21765;-62
2023/07/09 05:24:32;;;;;;;11.73;6.90;;;;;;;;;;5018504;28;20034;-62
2023/07/09 05:26:57;;;;;;;12.55;6.60;;;;;;;;;;5019671;28;20018;-62
2023/07/09 05:29:23;;;;;;;10.40;7.07;;;;;;;;;;5021410;28;20022;-62
2023/07/09 05:31:48;;;;;;;11.60;6.82;;;;;;;;;;5028641;28;20033;-62
2023/07/09 05:34:13;;;;;;;9.85;6.30;;;;;;;;;;5024485;28;20075;-63
2023/07/09 05:36:38;;;;;;;13.20;6.65;;;;;;;;;;5025158;28;20109;-63
2023/07/09 05:39:04;;;;;;;11.05;6.85;;;;;;;;;;5033543;28;20021;-62
2023/07/09 05:41:29;;;;;;;8.75;6.28;;;;;;;;;;5023468;28;20021;-62
2023/07/09 05:43:54;;;;;;;10.15;6.13;;;;;;;;;;5028699;28;20014;-63
2023/07/09 05:46:22;;;;;;;9.55;6.43;;;;;;;;;;5033454;28;20480;-62
2023/07/09 05:48:47;;;;;;;10.20;6.45;;;;;;;;;;5034186;28;20531;-62
2023/07/09 05:51:13;;;;;;;9.65;6.10;;;;;;;;;;5033425;28;20092;-62
2023/07/09 05:53:39;;;;;;;8.45;5.80;;;;;;;;;;5034678;28;20041;-62
2023/07/09 05:56:04;;;;;;;9.27;5.90;;;;;;;;;;5031717;28;20100;-62
2023/07/09 05:58:29;;;;;;;11.10;6.18;;;;;;;;;;5031392;28;20478;-62
2023/07/09 06:00:56;;;;;;;9.35;6.00;;;;;;;;;;5025214;28;20501;-62
2023/07/09 06:03:22;;;;;;;11.20;5.57;;;;;;;;;;5033507;28;20029;-63
2023/07/09 06:05:49;;;;;;;9.52;6.10;;;;;;;;;;5029242;28;20033;-63
2023/07/09 06:08:14;;;;;;;11.93;6.25;;;;;;;;;;5027822;28;20413;-62
2023/07/09 06:10:41;;;;;;;10.45;6.00;;;;;;;;;;5031167;28;20025;-63
2023/07/09 06:13:07;;;;;;;8.35;5.57;;;;;;;;;;5030861;28;20019;-63
2023/07/09 06:15:33;;;;;;;10.57;5.70;;;;;;;;;;5032678;28;20030;-63
2023/07/09 06:17:58;;;;;;;8.88;5.80;;;;;;;;;;5033010;28;20060;-63
2023/07/09 06:20:23;;;;;;;11.60;6.07;;;;;;;;;;5029989;28;20466;-62
2023/07/09 06:22:48;;;;;;;9.32;5.70;;;;;;;;;;5030129;28;20025;-62
2023/07/09 06:25:14;;;;;;;7.57;5.43;;;;;;;;;;5032491;28;20108;-62
2023/07/09 06:27:39;;;;;;;11.27;5.22;;;;;;;;;;5031689;28;20022;-62
2023/07/09 06:30:05;;;;;;;8.57;5.53;;;;;;;;;;5017743;28;20025;-62
2023/07/09 06:32:30;;;;;;;9.60;5.70;;;;;;;;;;5032690;28;20539;-62
2023/07/09 06:34:55;;;;;;;8.32;5.63;;;;;;;;;;5033428;28;20037;-63
2023/07/09 06:37:20;;;;;;;7.60;5.18;;;;;;;;;;5031419;28;20083;-62
2023/07/09 06:39:45;;;;;;;8.18;4.82;;;;;;;;;;5029523;28;21643;-63
2023/07/09 06:42:11;;;;;;;10.25;4.93;;;;;;;;;;5034449;28;20109;-63
2023/07/09 06:44:36;;;;;;;9.88;5.70;;;;;;;;;;5031906;28;20445;-63
2023/07/09 06:47:01;;;;;;;12.88;5.30;;;;;;;;;;5029642;28;20025;-62
2023/07/09 06:49:27;;;;;;;8.25;5.22;;;;;;;;;;5033951;28;20049;-62
2023/07/09 06:51:52;;;;;;;9.27;5.22;;;;;;;;;;5031989;28;20369;-62
2023/07/09 06:54:18;;;;;;;7.53;5.03;;;;;;;;;;5032689;28;20025;-63
2023/07/09 06:56:43;;;;;;;10.18;5.78;;;;;;;;;;5020345;28;20022;-62
2023/07/09 06:59:09;;;;;;;7.80;4.82;;;;;;;;;;5023344;28;20791;-62
2023/07/09 07:01:35;;;;;;;7.38;4.70;;;;;;;;;;5025896;28;20373;-62
2023/07/09 07:04:00;;;;;;;7.60;5.20;;;;;;;;;;5028331;28;20033;-63
2023/07/09 07:06:25;;;;;;;8.00;5.22;;;;;;;;;;5024935;28;20049;-62
2023/07/09 07:08:51;;;;;;;7.85;5.00;;;;;;;;;;5023554;28;20021;-62
2023/07/09 07:11:16;;;;;;;7.00;5.20;;;;;;;;;;5028632;28;20516;-62
2023/07/09 07:13:44;;;;;;;10.15;5.15;;;;;;;;;;5023351;28;20014;-63
2023/07/09 07:16:10;;;;;;;8.43;4.93;;;;;;;;;;5020762;28;20125;-62
2023/07/09 07:18:35;;;;;;;8.77;4.82;;;;;;;;;;5022986;28;20104;-62
2023/07/09 07:21:01;;;;;;;9.57;4.97;;;;;;;;;;5028146;28;20113;-62
2023/07/09 07:23:26;;;;;;;6.72;4.88;;;;;;;;;;5031651;28;20108;-62
2023/07/09 07:25:52;;;;;;;6.90;4.55;;;;;;;;;;5033586;28;20025;-62
2023/07/09 07:28:17;;;;;;;8.55;4.55;;;;;;;;;;5029984;28;20021;-62
2023/07/09 07:30:42;;;;;;;6.70;4.70;;;;;;;;;;5031891;28;20025;-62
2023/07/09 07:33:08;;;;;;;11.52;4.82;;;;;;;;;;5032048;28;20034;-62
2023/07/09 07:35:33;;;;;;;8.95;4.30;;;;;;;;;;5029721;28;20117;-62
2023/07/09 07:37:58;;;;;;;8.10;4.45;;;;;;;;;;5032370;28;20053;-63
2023/07/09 07:40:24;;;;;;;8.43;4.63;;;;;;;;;;5027271;28;20018;-63
2023/07/09 07:42:49;;;;;;;7.70;4.78;;;;;;;;;;5017867;28;20021;-62
2023/07/09 07:45:14;;;;;;;7.22;4.35;;;;;;;;;;5031281;28;20650;-62
2023/07/09 07:47:40;;;;;;;8.25;4.38;;;;;;;;;;5031568;28;20029;-62
2023/07/09 07:50:06;;;;;;;7.32;4.45;;;;;;;;;;5029822;28;20049;-62
2023/07/09 07:52:31;;;;;;;6.38;4.20;;;;;;;;;;5032614;28;20059;-62
2023/07/09 07:54:56;;;;;;;8.73;4.90;;;;;;;;;;5027725;28;20539;-62
2023/07/09 07:57:24;;;;;;;8.30;4.80;;;;;;;;;;5030658;28;20029;-62
2023/07/09 07:59:50;;;;;;;7.00;4.43;;;;;;;;;;5031065;28;20081;-62
2023/07/09 08:02:15;;;;;;;7.03;4.00;;;;;;;;;;5028557;28;20045;-62
2023/07/09 08:04:44;;;;;;;6.88;3.70;;;;;;;;;;5025469;28;20457;-62
2023/07/09 08:07:10;;;;;;;8.38;4.57;;;;;;;;;;5031689;28;20030;-63
2023/07/09 08:09:36;;;;;;;6.80;4.38;;;;;;;;;;5027157;28;20092;-62
2023/07/09 08:12:08;;;;;;;8.15;4.60;;;;;;;;;;5031172;28;20029;-62
2023/07/09 08:14:33;;;;;;;7.10;4.40;;;;;;;;;;5025098;28;20037;-62
2023/07/09 08:16:59;;;;;;;7.43;4.32;;;;;;;;;;5029411;28;20025;-62
2023/07/09 08:19:24;;;;;;;7.47;4.07;;;;;;;;;;5029107;28;20036;-62
2023/07/09 08:21:49;;;;;;;7.63;4.37;;;;;;;;;;5032542;28;20025;-62
2023/07/09 08:24:14;;;;;;;7.63;4.53;;;;;;;;;;5032693;28;20287;-62
2023/07/09 08:26:40;;;;;;;8.43;4.40;;;;;;;;;;5031161;28;20055;-62
2023/07/09 08:29:05;;;;;;;6.68;4.47;;;;;;;;;;5029643;28;20018;-63
2023/07/09 08:31:30;;;;;;;7.70;4.60;;;;;;;;;;5029239;28;20018;-62
2023/07/09 08:33:55;;;;;;;10.70;4.75;;;;;;;;;;5032607;28;20033;-62
2023/07/09 08:36:21;;;;;;;6.57;3.83;;;;;;;;;;5032005;28;20373;-61
2023/07/09 08:38:46;;;;;;;5.68;3.58;;;;;;;;;;5030607;28;20089;-62
2023/07/09 08:41:35;;;;;;;6.45;3.80;;;;;;;;;;5030669;28;20468;-62
2023/07/09 08:44:00;;;;;;;7.25;3.63;;;;;;;;;;5030673;28;20469;-61
2023/07/09 08:46:43;;;;;;;6.00;3.53;;;;;;;;;;5028730;28;20041;-61
2023/07/09 08:49:20;;;;;;;5.97;3.78;;;;;;;;;;5030263;28;20268;-61
2023/07/09 08:51:46;;;;;;;8.35;3.70;;;;;;;;;;5030775;28;20461;-61
2023/07/09 08:54:24;;;;;;;7.32;3.70;;;;;;;;;;5026747;28;20022;-61
2023/07/09 08:56:50;;;;;;;6.60;3.50;;;;;;;;;;5029121;28;20033;-61
2023/07/09 08:59:17;;;;;;;5.90;3.42;;;;;;;;;;5031075;28;20170;-61
2023/07/09 09:01:49;;;;;;;7.20;3.70;;;;;;;;;;5030286;28;20508;-61
2023/07/09 09:04:33;;;;;;;7.05;3.95;;;;;;;;;;5020464;28;20099;-61
2023/07/09 09:06:59;;;;;;;6.18;3.58;;;;;;;;;;5024300;28;20076;-61
2023/07/09 09:09:39;;;;;;;6.80;3.47;;;;;;;;;;5029555;28;20112;-61
2023/07/09 09:12:15;;;;;;;6.70;3.50;;;;;;;;;;5031288;28;20082;-61
2023/07/09 09:14:45;;;;;;;6.47;3.40;;;;;;;;;;5028855;28;20437;-61
2023/07/09 09:17:15;;;;;;;7.40;4.07;;;;;;;;;;5021450;28;20397;-61
2023/07/09 09:19:41;;;;;;;;;;;;;;;;;;5028784;28;20029;-61
2023/07/09 09:22:08;;;;;;;6.88;3.58;;;;;;;;;;5026740;28;19916;-61
2023/07/09 09:24:40;;;;;;;9.60;3.80;;;;;;;;;;5023272;28;20025;-61
2023/07/09 09:27:08;;;;;;;5.28;3.53;;;;;;;;;;5026963;28;20541;-62
2023/07/09 09:29:33;;;;;;;7.78;3.47;;;;;;;;;;5022999;28;20401;-61
2023/07/09 09:32:01;;;;;;;8.80;3.65;;;;;;;;;;5028517;28;20022;-61
2023/07/09 09:34:29;;;;;;;5.90;3.60;;;;;;;;;;5032315;28;20469;-62
2023/07/09 09:36:55;;;;;;;6.90;3.72;;;;;;;;;;5028650;28;20037;-62
2023/07/09 09:39:22;;;;;;;8.52;3.65;;;;;;;;;;5035707;28;20021;-62
2023/07/09 09:41:48;;;;;;;8.40;3.47;;;;;;;;;;5034662;28;20030;-61
2023/07/09 09:44:21;;;;;;;7.57;3.80;;;;;;;;;;5034328;28;20029;-62
2023/07/09 09:46:47;;;;;;;7.70;3.35;;;;;;;;;;5029309;28;20052;-61
2023/07/09 09:49:12;;;;;;;7.75;3.42;;;;;;;;;;5034922;28;20021;-61
2023/07/09 09:51:40;;;;;;;8.82;3.70;;;;;;;;;;5032450;28;20064;-61
2023/07/09 09:54:11;;;;;;;9.40;4.00;;;;;;;;;;5032113;28;20022;-61
2023/07/09 09:56:37;;;;;;;5.78;3.80;;;;;;;;;;5026034;28;20025;-62
2023/07/09 09:59:03;;;;;;;5.95;3.40;;;;;;;;;;5022796;28;20028;-62
2023/07/09 10:01:34;;;;;;;6.07;3.92;;;;;;;;;;5026085;28;20099;-62
2023/07/09 10:04:00;;;;;;;7.93;3.50;;;;;;;;;;5029726;28;20374;-62
2023/07/09 10:06:37;;;;;;;5.85;3.47;;;;;;;;;;5032865;28;20060;-62
2023/07/09 10:09:21;;;;;;;5.68;3.78;;;;;;;;;;5019212;28;20017;-61
2023/07/09 10:11:48;;;;;;;5.90;3.17;;;;;;;;;;5029509;28;20079;-62
2023/07/09 10:14:27;;;;;;;7.88;3.67;;;;;;;;;;5032544;28;20056;-62
2023/07/09 10:16:56;;;;;;;6.82;3.80;;;;;;;;;;5024965;28;20453;-63
2023/07/09 10:19:25;;;;;;;10.23;4.05;;;;;;;;;;5025658;28;20025;-61
2023/07/09 10:21:50;;;;;;;8.13;3.97;;;;;;;;;;5031817;28;20025;-62
2023/07/09 10:24:34;;;;;;;6.47;3.70;;;;;;;;;;5033548;28;20029;-62
2023/07/09 10:27:13;;;;;;;6.85;3.65;;;;;;;;;;5030481;28;20029;-62
2023/07/09 10:29:38;;;;;;;7.60;3.63;;;;;;;;;;5021299;28;20508;-62
2023/07/09 10:32:09;;;;;;;6.70;3.50;;;;;;;;;;5028307;28;20021;-62
2023/07/09 10:34:41;;;;;;;5.03;3.60;;;;;;;;;;5029599;28;20440;-63
2023/07/09 10:37:06;;;;;;;7.22;4.00;;;;;;;;;;5030443;28;20469;-63
2023/07/09 10:39:36;;;;;;;6.77;3.47;;;;;;;;;;5033572;28;20106;-62
2023/07/09 10:42:02;;;;;;;8.45;3.72;;;;;;;;;;5032703;28;20652;-62
2023/07/09 10:44:39;;;;;;;5.43;3.47;;;;;;;;;;5029175;28;20040;-62
2023/07/09 10:47:09;;;;;;;5.93;3.22;;;;;;;;;;5028050;28;20017;-62
2023/07/09 10:49:37;;;;;;;6.45;3.35;;;;;;;;;;5032971;28;20045;-62
2023/07/09 10:52:11;;;;;;;7.25;3.05;;;;;;;;;;5032156;28;20048;-62
2023/07/09 10:54:46;;;;;;;8.15;3.33;;;;;;;;;;5020287;28;20025;-62
2023/07/09 10:57:24;;;;;;;9.68;3.35;;;;;;;;;;5027245;28;20494;-62
2023/07/09 10:59:50;;;;;;;6.95;3.22;;;;;;;;;;5028815;28;20083;-63
2023/07/09 11:02:19;;;;;;;6.25;3.28;;;;;;;;;;5026614;28;20026;-64
2023/07/09 11:04:47;;;;;;;5.65;3.17;;;;;;;;;;5029352;28;20490;-63
2023/07/09 11:07:14;;;;;;;5.35;3.22;;;;;;;;;;5033504;28;20018;-64
2023/07/09 11:09:45;;;;;;;8.02;3.22;;;;;;;;;;5032142;28;20020;-63
2023/07/09 11:12:14;;;;;;;7.90;3.28;;;;;;;;;;5028726;28;20053;-63
2023/07/09 11:14:41;;;;;;;7.93;3.10;;;;;;;;;;5023432;28;20052;-63
2023/07/09 11:17:17;;;;;;;5.93;3.67;;;;;;;;;;5029400;28;20110;-64
2023/07/09 11:19:44;;;;;;;9.35;3.40;;;;;;;;;;5031751;28;20461;-64
2023/07/09 11:22:17;;;;;;;7.65;3.10;;;;;;;;;;5031881;28;20543;-63
2023/07/09 11:24:50;;;;;;;10.05;3.13;;;;;;;;;;5025357;28;20032;-69
2023/07/09 11:27:23;;;;;;;6.50;4.47;;;;;;;;;;5029669;28;20037;-64
2023/07/09 11:29:56;;;;;;;6.55;3.60;;;;;;;;;;5029958;28;20037;-65
2023/07/09 11:32:22;;;;;;;6.90;3.25;;;;;;;;;;5030884;28;20025;-64
2023/07/09 11:34:48;;;;;;;6.15;3.13;;;;;;;;;;5028633;28;20482;-65
2023/07/09 11:37:13;;;;;;;6.20;3.30;;;;;;;;;;5029833;28;20036;-65
2023/07/09 11:39:40;;;;;;;5.07;3.20;;;;;;;;;;5025781;28;20474;-64
2023/07/09 11:42:23;;;;;;;5.43;3.20;;;;;;;;;;5030548;28;20028;-65
2023/07/09 11:44:49;;;;;;;7.78;3.40;;;;;;;;;;5027161;28;20025;-64
2023/07/09 11:47:21;;;;;;;5.30;3.13;;;;;;;;;;5030650;28;20022;-65
2023/07/09 11:49:46;;;;;;;6.65;3.20;;;;;;;;;;5031658;28;20028;-65
2023/07/09 11:52:12;;;;;;;7.55;3.47;;;;;;;;;;5030871;28;20021;-64
2023/07/09 11:54:38;;;;;;;7.85;3.33;;;;;;;;;;5030205;28;20056;-65
2023/07/09 11:57:10;;;;;;;6.78;3.35;;;;;;;;;;5027299;28;20483;-66
2023/07/09 11:59:38;;;;;;;6.15;3.30;;;;;;;;;;5028825;28;20029;-70
2023/07/09 12:02:04;;;;;;;5.20;3.00;;;;;;;;;;5029772;28;20623;-66
2023/07/09 12:04:35;;;;;;;6.32;3.17;;;;;;;;;;5031271;28;20052;-66
2023/07/09 12:07:01;;;;;;;6.40;3.00;;;;;;;;;;5033273;28;20024;-65
2023/07/09 12:09:30;;;;;;;7.28;2.83;;;;;;;;;;5032375;28;20458;-66
2023/07/09 12:11:55;;;;;;;7.53;3.13;;;;;;;;;;5030588;28;20026;-65
2023/07/09 12:14:21;;;;;;;7.43;3.17;;;;;;;;;;5029795;28;20095;-66
2023/07/09 12:16:48;;;;;;;6.15;2.75;;;;;;;;;;5032454;28;20268;-66
2023/07/09 12:19:14;;;;;;;5.88;3.33;;;;;;;;;;5031627;28;20461;-67
2023/07/09 12:21:42;;;;;;;5.20;3.17;;;;;;;;;;5031979;28;20025;-67
2023/07/09 12:24:19;;;;;;;5.28;2.97;;;;;;;;;;5031388;28;20041;-67
2023/07/09 12:26:47;;;;;;;6.28;3.10;;;;;;;;;;5029951;28;20022;-66
2023/07/09 12:29:12;;;;;;;5.68;3.20;;;;;;;;;;5029789;28;20044;-66
2023/07/09 12:31:39;;;;;;;7.20;2.88;;;;;;;;;;5028891;28;20017;-66
2023/07/09 12:34:04;;;;;;;7.97;3.10;;;;;;;;;;5031488;28;20064;-67
2023/07/09 12:36:29;;;;;;;5.03;2.78;;;;;;;;;;5030498;28;20057;-67
2023/07/09 12:39:02;;;;;;;5.82;2.85;;;;;;;;;;5032830;28;20033;-67
2023/07/09 12:41:41;;;;;;;6.35;2.75;;;;;;;;;;5026318;28;20385;-67
2023/07/09 12:44:11;;;;;;;5.10;2.90;;;;;;;;;;5029449;28;20035;-67
2023/07/09 12:46:36;;;;;;;7.70;3.15;;;;;;;;;;5030756;28;20508;-72
2023/07/09 12:49:01;;;;;;;6.13;3.20;;;;;;;;;;5028486;28;20045;-72
2023/07/09 12:51:28;;;;;;;8.77;3.20;;;;;;;;;;5030525;28;20032;-72
2023/07/09 12:54:12;;;;;;;5.15;2.80;;;;;;;;;;5032256;28;20272;-72
2023/07/09 12:56:37;;;;;;;6.93;2.85;;;;;;;;;;5025311;28;20513;-67
2023/07/09 12:59:12;;;;;;;8.57;3.10;;;;;;;;;;5029449;28;20113;-66
2023/07/09 13:01:38;;;;;;;5.20;2.70;;;;;;;;;;5024536;28;20029;-66
2023/07/09 13:04:03;;;;;;;5.30;2.47;;;;;;;;;;5026558;28;20045;-67
2023/07/09 13:06:30;;;;;;;8.23;2.90;;;;;;;;;;5030729;28;20366;-68
2023/07/09 13:08:57;;;;;;;7.53;3.25;;;;;;;;;;5033590;28;20017;-68
2023/07/09 13:11:22;;;;;;;5.88;3.08;;;;;;;;;;5033503;28;20017;-68
2023/07/09 13:13:58;;;;;;;8.75;3.00;;;;;;;;;;5034775;28;20040;-68
2023/07/09 13:16:23;;;;;;;6.28;2.80;;;;;;;;;;5032572;28;20014;-68
2023/07/09 13:18:48;;;;;;;5.20;3.13;;;;;;;;;;5034747;28;20021;-73
2023/07/09 13:21:16;;;;;;;5.25;2.72;;;;;;;;;;5033663;28;20404;-73
2023/07/09 13:23:42;;;;;;;8.07;2.75;;;;;;;;;;5030423;28;20474;-75
2023/07/09 13:26:08;;;;;;;5.32;2.72;;;;;;;;;;5020580;28;20052;-74
2023/07/09 13:28:33;;;;;;;6.45;2.80;;;;;;;;;;5034059;28;20175;-73
2023/07/09 13:30:59;;;;;;;6.00;2.80;;;;;;;;;;5033362;28;20100;-73
2023/07/09 13:33:25;;;;;;;5.82;2.83;;;;;;;;;;5031769;28;20017;-74
2023/07/09 13:35:53;;;;;;;6.53;2.80;;;;;;;;;;5034156;28;20025;-76
2023/07/09 13:38:19;;;;;;;6.28;2.75;;;;;;;;;;5034841;28;20326;-74
2023/07/09 13:40:46;;;;;;;5.50;2.90;;;;;;;;;;5032363;28;20488;-74
2023/07/09 13:43:16;;;;;;;5.55;3.30;;;;;;;;;;5026483;28;20014;-74
2023/07/09 13:45:42;;;;;;;11.77;3.20;;;;;;;;;;5028775;28;20029;-74
2023/07/09 13:48:11;;;;;;;6.88;3.00;;;;;;;;;;5032504;28;20529;-78
2023/07/09 13:50:37;;;;;;;7.35;3.03;;;;;;;;;;5034454;28;20029;-74
2023/07/09 13:53:02;;;;;;;6.50;2.85;;;;;;;;;;5035598;28;20099;-74
2023/07/09 13:55:27;;;;;;;8.63;3.30;;;;;;;;;;5029438;28;20032;-74
2023/07/09 13:57:53;;;;;;;6.93;3.10;;;;;;;;;;5033893;28;20326;-75
2023/07/09 14:00:18;;;;;;;6.38;3.20;;;;;;;;;;5032115;28;20288;-75
2023/07/09 14:02:44;;;;;;;7.45;3.20;;;;;;;;;;5030944;28;20026;-71
2023/07/09 14:05:11;;;;;;;4.90;2.90;;;;;;;;;;5028847;28;20045;-70
2023/07/09 14:07:38;;;;;;;6.13;3.17;;;;;;;;;;5023675;28;20053;-71
2023/07/09 14:10:05;;;;;;;7.97;3.15;;;;;;;;;;5034057;28;20021;-71
2023/07/09 14:12:31;;;;;;;7.60;2.97;;;;;;;;;;5026590;28;20108;-71
2023/07/09 14:14:58;;;;;;;5.13;2.72;;;;;;;;;;5030822;28;20113;-72
2023/07/09 14:17:25;;;;;;;5.30;2.90;;;;;;;;;;5027401;28;20473;-72
2023/07/09 14:19:51;;;;;;;6.65;3.20;;;;;;;;;;5029969;28;20063;-72
2023/07/09 14:22:36;;;;;;;7.65;3.30;;;;;;;;;;5030808;28;20059;-72
2023/07/09 14:25:02;;;;;;;7.82;3.30;;;;;;;;;;5028715;28;20083;-76
2023/07/09 14:27:27;;;;;;;6.47;3.03;;;;;;;;;;5032174;28;20028;-76
2023/07/09 14:29:53;;;;;;;7.28;3.42;;;;;;;;;;5032567;28;20021;-76
2023/07/09 14:32:35;;;;;;;5.80;3.20;;;;;;;;;;5031623;28;20048;-75
2023/07/09 14:35:01;;;;;;;7.38;3.20;;;;;;;;;;5031961;28;20120;-75
2023/07/09 14:37:27;;;;;;;7.38;3.33;;;;;;;;;;5031411;28;20468;-74